Terminal Aerodrome Forecast
Issued by NWS Buffalo, NY

Home | Current Version | Previous Version | Text Only | Print | Product List | Glossary On
Versions: 1 2 3 4 5 6 7 8 9 10 11 12 13 14 15 16 17 18 19 20 21 22 23 24 25 26 27 28 29
000
FTUS41 KBUF 012127 AAC
TAFBUF
TAF AMD
KBUF 012127Z 0121/0218 25014G22KT P6SM VCTS BKN040CB
      TEMPO 0121/0123 VRB15G30KT 3SM -TSRA BR BKN025CB
     FM012300 24013KT P6SM BKN050
     FM020200 22008KT P6SM SCT050
     FM021400 23013KT P6SM SCT250
     FM021700 23016G22KT P6SM SCT250=

USA.gov is the U.S. government's official web portal to all federal, state and local government web resources and services.